createdAt,value
2023-05-01T18:10:38.020Z,994.07
2023-05-01T18:11:39.028Z,994.06
2023-05-01T18:12:39.154Z,994.10
2023-05-01T18:13:39.217Z,994.13
2023-05-01T18:14:39.284Z,994.10
2023-05-01T18:19:24.025Z,994.12
2023-05-01T18:20:25.089Z,994.13
2023-05-01T18:21:25.187Z,994.17
2023-05-01T18:22:25.268Z,994.22
2023-05-01T18:23:25.374Z,994.21
2023-05-01T18:24:25.520Z,994.21
2023-05-01T18:25:25.475Z,994.25
2023-05-01T18:26:25.617Z,994.27
2023-05-01T18:27:25.642Z,994.21
2023-05-01T18:28:25.685Z,994.19
2023-05-01T18:29:25.770Z,994.21
2023-05-01T18:30:25.864Z,994.21
2023-05-01T18:31:26.008Z,994.17
2023-05-01T18:32:35.855Z,994.25
2023-05-01T18:33:26.156Z,994.23
2023-05-01T18:34:26.196Z,994.24
2023-05-01T18:35:26.285Z,994.24
2023-05-01T18:36:26.399Z,994.26
2023-05-01T18:37:26.450Z,994.24
2023-05-01T18:38:28.392Z,994.27
2023-05-01T18:39:26.624Z,994.29
2023-05-01T18:40:26.710Z,994.28
2023-05-01T18:41:26.824Z,994.29
2023-05-01T18:42:26.975Z,994.29
2023-05-01T18:43:26.956Z,994.32
2023-05-01T18:44:27.075Z,994.30
2023-05-01T18:45:27.149Z,994.31
2023-05-01T18:46:27.301Z,994.31
2023-05-01T18:47:27.289Z,994.33
2023-05-01T18:48:27.438Z,994.33
2023-05-01T18:49:27.437Z,994.31
2023-05-01T18:50:27.542Z,994.31
2023-05-01T18:51:27.654Z,994.38
2023-05-01T18:52:27.695Z,994.41
2023-05-01T18:53:27.777Z,994.37
2023-05-01T18:54:27.847Z,994.40
2023-05-01T18:55:27.966Z,994.44
2023-05-01T18:56:28.048Z,994.45
2023-05-01T18:57:28.094Z,994.53
2023-05-01T18:58:28.175Z,994.47
2023-05-01T18:59:28.271Z,994.49
2023-05-01T19:00:28.334Z,994.47
2023-05-01T19:01:28.534Z,994.53
2023-05-01T19:02:28.536Z,994.52
2023-05-01T19:03:28.612Z,994.54
2023-05-01T19:04:28.684Z,994.54
2023-05-01T19:05:28.836Z,994.57
2023-05-01T19:06:28.938Z,994.58
2023-05-01T19:07:28.909Z,994.57
2023-05-01T19:08:28.995Z,994.55
2023-05-01T19:09:29.067Z,994.61
2023-05-01T19:10:29.159Z,994.63
2023-05-01T19:11:29.256Z,994.64
2023-05-01T19:12:29.315Z,994.65
2023-05-01T19:13:29.350Z,994.67
2023-05-01T19:14:29.443Z,994.65
2023-05-01T19:15:29.545Z,994.71
2023-05-01T19:16:29.699Z,994.70
2023-05-01T19:17:29.687Z,994.69
2023-05-01T19:18:29.784Z,994.63
2023-05-01T19:19:29.834Z,994.70
2023-05-01T19:22:02.686Z,994.72
2023-05-01T19:23:03.728Z,994.73
2023-05-01T19:24:03.790Z,994.77
2023-05-01T19:25:03.892Z,994.76
2023-05-01T19:26:03.988Z,994.78
2023-05-01T19:27:04.082Z,994.76
2023-05-01T19:28:04.114Z,994.79
2023-05-01T19:29:04.161Z,994.81
2023-05-01T19:30:04.259Z,994.82
2023-05-01T19:31:04.342Z,994.78
2023-05-01T19:32:04.499Z,994.79
2023-05-01T19:33:04.556Z,994.82
2023-05-01T19:34:04.620Z,994.82
2023-05-01T19:35:04.675Z,994.84
2023-05-01T19:36:04.706Z,994.82
2023-05-01T19:37:04.808Z,994.83
2023-05-01T19:38:04.892Z,994.84
2023-05-01T19:39:04.988Z,994.83
2023-05-01T19:40:05.064Z,994.89
2023-05-01T19:41:05.107Z,994.91
2023-05-01T19:42:05.222Z,994.89
2023-05-01T19:43:05.288Z,994.90
2023-05-01T19:44:05.333Z,994.90
2023-05-01T19:45:05.424Z,994.91
2023-05-01T19:46:05.544Z,994.93
2023-05-01T19:47:05.634Z,994.95
2023-05-01T19:48:05.696Z,994.93
2023-05-01T19:49:05.800Z,994.92
2023-05-01T19:50:05.840Z,994.95
2023-05-01T19:51:05.963Z,994.93
2023-05-01T19:52:06.072Z,994.91
2023-05-01T19:53:06.130Z,994.95
2023-05-01T19:54:06.180Z,994.96
2023-05-01T19:55:06.297Z,994.97
2023-05-01T19:56:06.332Z,995.00
2023-05-01T19:57:06.496Z,995.03
2023-05-01T19:58:06.519Z,995.03
2023-05-01T19:59:06.575Z,995.00
2023-05-01T20:00:06.650Z,995.04
2023-05-01T20:01:06.777Z,995.03
2023-05-01T20:02:06.987Z,995.08
2023-05-01T20:03:07.005Z,995.06
2023-05-01T20:04:07.013Z,995.06
2023-05-01T20:05:07.103Z,995.09
2023-05-01T20:06:07.154Z,995.11
2023-05-01T20:07:07.251Z,995.10
2023-05-01T20:08:07.331Z,995.14
2023-05-01T20:09:07.360Z,995.17
2023-05-01T20:10:07.493Z,995.15
2023-05-01T20:11:07.545Z,995.15
2023-05-01T20:12:07.641Z,995.15
2023-05-01T20:13:07.679Z,995.18
2023-05-01T20:14:07.717Z,995.20
2023-05-01T20:15:07.789Z,995.18
2023-05-01T20:16:07.930Z,995.23
2023-05-01T20:17:08.107Z,995.27
2023-05-01T20:18:08.079Z,995.22
2023-05-01T20:19:08.084Z,995.26
2023-05-01T20:20:08.216Z,995.29
2023-05-01T20:21:08.282Z,995.29
2023-05-01T20:22:08.429Z,995.34
2023-05-01T20:23:08.471Z,995.35
2023-05-01T20:24:08.526Z,995.30
2023-05-01T20:25:09.697Z,995.28
2023-05-01T20:26:08.711Z,995.27
2023-05-01T20:27:08.820Z,995.28
2023-05-01T20:28:08.906Z,995.25
2023-05-01T20:29:08.972Z,995.28
2023-05-01T20:30:09.085Z,995.30
2023-05-01T20:31:09.153Z,995.27
2023-05-01T20:32:09.256Z,995.28
2023-05-01T20:33:09.350Z,995.30
2023-05-01T20:34:09.353Z,995.35
2023-05-01T20:35:09.399Z,995.38
2023-05-01T20:36:09.519Z,995.33
2023-05-01T20:37:09.632Z,995.38
2023-05-01T20:38:09.699Z,995.38
2023-05-01T20:39:09.775Z,995.42
2023-05-01T20:40:09.846Z,995.39
2023-05-01T20:41:09.937Z,995.40
2023-05-01T20:42:10.029Z,995.45
2023-05-01T20:43:10.087Z,995.54
2023-05-01T20:44:10.163Z,995.49
2023-05-01T20:45:10.236Z,995.50
2023-05-01T20:46:10.380Z,995.53
2023-05-01T20:47:10.394Z,995.52
2023-05-01T20:48:10.513Z,995.54
2023-05-01T20:49:10.536Z,995.55
2023-05-01T20:50:10.639Z,995.54
2023-05-01T20:51:10.716Z,995.55
2023-05-01T20:52:10.817Z,995.57
2023-05-01T20:53:10.853Z,995.59
2023-05-01T20:54:10.972Z,995.60
2023-05-01T20:55:10.986Z,995.55
2023-05-01T20:56:11.102Z,995.62
2023-05-01T20:57:11.181Z,995.61
2023-05-01T20:58:11.275Z,995.61
2023-05-01T20:59:11.373Z,995.62
2023-05-01T21:00:11.435Z,995.65
2023-05-01T21:01:11.557Z,995.67
2023-05-01T21:02:11.719Z,995.70
2023-05-01T21:03:11.735Z,995.68
2023-05-01T21:04:11.845Z,995.77
2023-05-01T21:05:11.850Z,995.76
2023-05-01T21:06:11.908Z,995.80
2023-05-01T21:07:11.987Z,995.84
2023-05-01T21:08:12.008Z,995.84
2023-05-01T21:09:12.076Z,995.84
2023-05-01T21:10:12.152Z,995.76
2023-05-01T21:11:12.257Z,995.74
2023-05-01T21:12:12.363Z,995.80
2023-05-01T21:13:12.408Z,995.79
2023-05-01T21:14:12.478Z,995.82
2023-05-01T21:15:12.560Z,995.82
2023-05-01T21:16:12.692Z,995.84
2023-05-01T21:17:12.766Z,995.82
2023-05-01T21:18:12.818Z,995.82
2023-05-01T21:19:12.890Z,995.83
2023-05-01T21:20:12.959Z,995.85
2023-05-01T21:21:13.015Z,995.86
2023-05-01T21:22:13.151Z,995.84
2023-05-01T21:23:13.147Z,995.85
2023-05-01T21:24:13.238Z,995.88
2023-05-01T21:25:13.312Z,995.94
2023-05-01T21:26:13.367Z,995.94
2023-05-01T21:27:13.527Z,995.93
2023-05-01T21:28:13.578Z,996.03
2023-05-01T21:29:13.681Z,995.93
2023-05-01T21:30:13.732Z,995.95
2023-05-01T21:31:13.836Z,995.98
2023-05-01T21:32:13.913Z,995.95
2023-05-01T21:33:13.964Z,995.96
2023-05-01T21:34:14.035Z,995.99
2023-05-01T21:35:17.328Z,996.01
2023-05-01T21:36:14.158Z,996.01
2023-05-01T21:37:14.279Z,996.02
2023-05-01T21:38:14.347Z,996.03
2023-05-01T21:39:14.392Z,996.04
2023-05-01T21:40:14.697Z,996.02
2023-05-01T21:41:14.557Z,996.05
2023-05-01T21:42:14.655Z,996.02
2023-05-01T21:43:14.697Z,996.03
2023-05-01T21:44:14.795Z,996.01
2023-05-01T21:45:14.841Z,996.04
2023-05-01T21:46:14.917Z,995.94
2023-05-01T21:47:15.057Z,995.98
2023-05-01T21:48:15.171Z,995.94
2023-05-01T21:49:15.174Z,996.00
2023-05-01T21:50:15.288Z,995.98
2023-05-01T21:51:15.366Z,996.03
2023-05-01T21:52:15.509Z,996.03
2023-05-01T21:53:15.524Z,996.05
2023-05-01T21:54:15.600Z,996.05
2023-05-01T21:55:15.667Z,996.03
2023-05-01T21:56:15.791Z,996.03
2023-05-01T21:57:15.882Z,996.02
2023-05-01T21:58:15.909Z,996.00
2023-05-01T21:59:15.991Z,995.98
2023-05-01T22:00:16.081Z,996.01
2023-05-01T22:01:16.264Z,996.03
2023-05-01T22:02:16.248Z,996.02
2023-05-01T22:03:16.443Z,996.04
2023-05-01T22:04:16.660Z,996.06
2023-05-01T22:05:16.546Z,996.02
2023-05-01T22:06:16.575Z,996.03
2023-05-01T22:07:16.667Z,996.01
2023-05-01T22:08:16.712Z,996.05
2023-05-01T22:09:16.787Z,996.04
2023-05-01T22:10:16.852Z,996.01
2023-05-01T22:11:16.936Z,996.05
2023-05-01T22:12:17.040Z,996.07
2023-05-01T22:13:17.097Z,996.06
2023-05-01T22:14:17.180Z,996.15
2023-05-01T22:15:17.257Z,996.09
2023-05-01T22:16:17.366Z,996.06
2023-05-01T22:17:17.447Z,996.10
2023-05-01T22:18:17.503Z,996.08
2023-05-01T22:19:17.538Z,996.09
2023-05-01T22:20:17.625Z,996.08
2023-05-01T22:21:17.678Z,996.13
2023-05-01T22:22:17.834Z,996.13
2023-05-01T22:23:17.848Z,996.07
2023-05-01T22:24:17.894Z,996.10
2023-05-01T22:25:17.986Z,996.12
2023-05-01T22:26:18.085Z,996.12
2023-05-01T22:27:18.154Z,996.16
2023-05-01T22:28:19.094Z,996.12
2023-05-01T22:29:18.248Z,996.17
2023-05-01T22:30:18.326Z,996.17
2023-05-01T22:31:18.530Z,996.16
2023-05-01T22:32:18.631Z,996.14
2023-05-01T22:33:18.621Z,996.20
2023-05-01T22:34:18.664Z,996.18
2023-05-01T22:35:18.734Z,996.19
2023-05-01T22:36:18.828Z,996.27
2023-05-01T22:37:19.005Z,996.28
2023-05-01T22:38:18.987Z,996.28
2023-05-01T22:39:19.096Z,996.28
2023-05-01T22:40:19.129Z,996.24
2023-05-01T22:41:19.194Z,996.28
2023-05-01T22:42:19.320Z,996.31
2023-05-01T22:43:19.384Z,996.27
2023-05-01T22:44:22.169Z,996.28
2023-05-01T22:45:19.558Z,996.30
2023-05-01T22:46:19.661Z,996.25
2023-05-01T22:47:19.734Z,996.31
2023-05-01T22:48:19.829Z,996.30
2023-05-01T22:49:19.913Z,996.32
2023-05-01T22:50:19.985Z,996.32
2023-05-01T22:51:20.064Z,996.34
2023-05-01T22:52:20.186Z,996.36
2023-05-01T22:53:20.228Z,996.37
2023-05-01T22:54:20.317Z,996.38
2023-05-01T22:55:20.384Z,996.37
2023-05-01T22:56:20.477Z,996.41
2023-05-01T22:57:20.583Z,996.39
2023-05-01T22:58:20.656Z,996.45
2023-05-01T22:59:20.719Z,996.37
2023-05-01T23:00:20.804Z,996.37
2023-05-01T23:01:20.934Z,996.43
2023-05-01T23:02:21.124Z,996.39
2023-05-01T23:03:21.162Z,996.37
2023-05-01T23:04:21.218Z,996.33
2023-05-01T23:05:21.243Z,996.37
2023-05-01T23:06:21.388Z,996.33
2023-05-01T23:07:21.437Z,996.33
2023-05-01T23:08:21.493Z,996.38
2023-05-01T23:09:21.549Z,996.42
2023-05-01T23:10:21.634Z,996.40
2023-05-01T23:11:21.730Z,996.42
2023-05-01T23:12:21.881Z,996.41
2023-05-01T23:13:21.887Z,996.48
2023-05-01T23:14:21.971Z,996.50
2023-05-01T23:15:22.052Z,996.49
2023-05-01T23:16:22.161Z,996.53
2023-05-01T23:17:22.316Z,996.53
2023-05-01T23:18:22.281Z,996.50
2023-05-01T23:19:22.385Z,996.57
2023-05-01T23:20:22.503Z,996.56
2023-05-01T23:21:22.533Z,996.57
2023-05-01T23:22:22.662Z,996.51
2023-05-01T23:23:22.728Z,996.55
2023-05-01T23:24:22.808Z,996.53
2023-05-01T23:25:22.866Z,996.53
2023-05-01T23:26:22.960Z,996.54
2023-05-01T23:27:23.062Z,996.50
2023-05-01T23:28:23.094Z,996.49
2023-05-01T23:29:23.182Z,996.53
2023-05-01T23:30:23.275Z,996.52
2023-05-01T23:31:23.393Z,996.54
2023-05-01T23:32:23.454Z,996.48
2023-05-01T23:33:23.470Z,996.51
2023-05-01T23:34:23.559Z,996.45
2023-05-01T23:35:23.797Z,996.50
2023-05-01T23:36:23.725Z,996.46
2023-05-01T23:37:23.812Z,996.49
2023-05-01T23:38:23.859Z,996.49
2023-05-01T23:39:23.925Z,996.48
2023-05-01T23:40:24.001Z,996.48
2023-05-01T23:41:24.086Z,996.46
2023-05-01T23:42:24.183Z,996.52
2023-05-01T23:43:24.237Z,996.49
2023-05-01T23:44:24.338Z,996.53
2023-05-01T23:45:24.403Z,996.49
2023-05-01T23:46:24.502Z,996.49
2023-05-01T23:47:24.633Z,996.48
2023-05-01T23:48:24.630Z,996.49
2023-05-01T23:49:24.688Z,996.51
2023-05-01T23:50:24.780Z,996.48
2023-05-01T23:51:24.877Z,996.49
2023-05-01T23:52:24.989Z,996.51
2023-05-01T23:53:25.005Z,996.48
2023-05-01T23:54:25.078Z,996.51
2023-05-01T23:55:25.127Z,996.55
2023-05-01T23:56:25.230Z,996.56
2023-05-01T23:57:25.320Z,996.52
2023-05-01T23:58:25.372Z,996.53
2023-05-01T23:59:25.419Z,996.53
